createdAt,value
2022-08-17T00:02:22.409Z,99028.91
2022-08-17T00:05:30.180Z,99041.53
2022-08-17T00:08:38.004Z,99029.72
2022-08-17T00:11:43.206Z,99031.31
2022-08-17T00:15:06.286Z,99028.03
2022-08-17T00:19:01.979Z,99030.22
2022-08-17T00:22:00.006Z,99039.41
2022-08-17T00:24:55.996Z,99051.53
2022-08-17T00:27:57.419Z,99039.56
2022-08-17T00:30:59.732Z,99037.72
2022-08-17T00:34:01.999Z,99036.91
2022-08-17T00:37:03.517Z,99041.91
2022-08-17T00:40:06.183Z,99056.06
2022-08-17T00:43:14.921Z,99062.25
2022-08-17T00:46:24.342Z,99061.97
2022-08-17T00:49:26.335Z,99061.66
2022-08-17T00:52:32.299Z,99065.44
2022-08-17T00:55:34.508Z,99064.47
2022-08-17T00:58:37.364Z,99064.31
2022-08-17T01:01:39.784Z,99053.56
2022-08-17T01:04:45.083Z,99056.63
2022-08-17T01:07:50.709Z,99054.59
2022-08-17T01:10:59.416Z,99059.59
2022-08-17T01:14:04.096Z,99064.38
2022-08-17T01:17:06.761Z,99066.56
2022-08-17T01:20:09.122Z,99064.47
2022-08-17T01:23:10.980Z,99069.53
2022-08-17T01:26:18.235Z,99069.59
2022-08-17T01:29:20.246Z,99063.34
2022-08-17T01:32:21.821Z,99072.69
2022-08-17T01:35:23.402Z,99078.50
2022-08-17T01:38:27.392Z,99088.19
2022-08-17T01:41:29.241Z,99089.66
2022-08-17T01:44:30.742Z,99102.75
2022-08-17T01:47:32.452Z,99102.25
2022-08-17T01:50:40.904Z,99110.53
2022-08-17T01:53:47.376Z,99130.75
2022-08-17T01:56:51.459Z,99146.91
2022-08-17T01:59:52.915Z,99158.56
2022-08-17T02:02:54.434Z,99169.16
2022-08-17T02:05:56.261Z,99176.53
2022-08-17T02:09:03.578Z,99178.88
2022-08-17T02:12:37.820Z,99171.28
2022-08-17T02:15:29.108Z,99191.34
2022-08-17T02:18:30.713Z,99186.19
2022-08-17T02:21:32.480Z,99191.75
2022-08-17T02:24:59.779Z,99188.06
2022-08-17T02:27:59.897Z,99179.88
2022-08-17T02:31:07.606Z,99181.97
2022-08-17T02:34:09.486Z,99178.75
2022-08-17T02:37:11.212Z,99176.47
2022-08-17T02:40:12.634Z,99177.44
2022-08-17T02:43:14.459Z,99168.06
2022-08-17T02:46:15.908Z,99173.81
2022-08-17T02:49:17.354Z,99177.00
2022-08-17T02:52:19.005Z,99166.28
2022-08-17T02:55:41.797Z,99185.03
2022-08-17T02:58:43.259Z,99182.97
2022-08-17T03:01:44.933Z,99176.81
2022-08-17T03:04:46.450Z,99184.56
2022-08-17T03:07:48.753Z,99175.19
2022-08-17T03:10:50.685Z,99181.97
2022-08-17T03:13:52.155Z,99183.19
2022-08-17T03:16:53.704Z,99186.03
2022-08-17T03:19:55.776Z,99196.28
2022-08-17T03:23:02.975Z,99196.59
2022-08-17T03:26:04.798Z,99189.75
2022-08-17T03:29:18.817Z,99201.75
2022-08-17T03:32:20.638Z,99199.66
2022-08-17T03:35:25.458Z,99203.53
2022-08-17T03:38:26.975Z,99202.88
2022-08-17T03:41:28.612Z,99210.31
2022-08-17T03:44:30.056Z,99207.00
2022-08-17T03:47:50.197Z,99212.22
2022-08-17T03:51:14.659Z,99215.75
2022-08-17T03:54:35.059Z,99215.59
2022-08-17T03:57:36.780Z,99215.75
2022-08-17T04:00:39.770Z,99227.09
2022-08-17T04:03:41.780Z,99236.06
2022-08-17T04:06:43.146Z,99240.88
2022-08-17T04:09:44.897Z,99236.69
2022-08-17T04:12:54.469Z,99243.53
2022-08-17T04:15:57.224Z,99237.88
2022-08-17T04:18:58.994Z,99227.06
2022-08-17T04:22:00.399Z,99217.06
2022-08-17T04:25:09.001Z,99212.34
2022-08-17T04:28:15.846Z,99208.19
2022-08-17T04:31:17.880Z,99193.91
2022-08-17T04:34:20.258Z,99188.34
2022-08-17T04:37:22.027Z,99192.94
2022-08-17T04:40:44.872Z,99202.53
2022-08-17T04:43:48.824Z,99197.78
2022-08-17T04:46:50.333Z,99178.88
2022-08-17T04:49:53.465Z,99173.09
2022-08-17T04:52:55.293Z,99204.66
2022-08-17T04:55:58.928Z,99204.03
2022-08-17T04:59:04.268Z,99200.59
2022-08-17T05:02:05.722Z,99188.72
2022-08-17T05:05:07.489Z,99185.69
2022-08-17T05:08:09.188Z,99192.59
2022-08-17T05:11:10.754Z,99208.00
2022-08-17T05:14:12.801Z,99206.53
2022-08-17T05:17:14.519Z,99214.66
2022-08-17T05:20:16.428Z,99223.88
2022-08-17T05:23:18.826Z,99204.28
2022-08-17T05:26:25.989Z,99206.88
2022-08-17T05:29:35.617Z,99217.13
2022-08-17T05:32:40.298Z,99223.41
2022-08-17T05:35:46.949Z,99242.16
2022-08-17T05:38:48.551Z,99247.94
2022-08-17T05:41:50.033Z,99253.16
2022-08-17T05:44:51.476Z,99258.03
2022-08-17T05:47:53.002Z,99254.88
2022-08-17T05:51:19.654Z,99259.41
2022-08-17T05:54:48.273Z,99263.91
2022-08-17T05:58:11.276Z,99244.25
2022-08-17T06:01:47.664Z,99236.09
2022-08-17T06:05:11.100Z,99234.84
2022-08-17T06:08:53.415Z,99214.00
2022-08-17T06:12:14.484Z,99225.50
2022-08-17T06:15:46.034Z,99231.63
2022-08-17T06:19:00.598Z,99210.53
2022-08-17T06:22:03.477Z,99226.50
2022-08-17T06:25:12.783Z,99226.53
2022-08-17T06:28:21.007Z,99232.19
2022-08-17T06:31:29.015Z,99214.69
2022-08-17T06:34:32.028Z,99180.25
2022-08-17T06:38:05.445Z,99177.66
2022-08-17T06:42:03.271Z,99168.59
2022-08-17T06:45:15.378Z,99171.09
2022-08-17T06:48:32.402Z,99179.22
2022-08-17T06:51:43.356Z,99167.94
2022-08-17T06:54:57.161Z,99160.13
2022-08-17T06:58:05.849Z,99147.06
2022-08-17T07:01:24.853Z,99152.38
2022-08-17T07:04:31.161Z,99157.00
2022-08-17T07:07:56.637Z,99151.78
2022-08-17T07:11:04.885Z,99116.41
2022-08-17T07:14:23.850Z,99125.91
2022-08-17T07:17:46.779Z,99134.09
2022-08-17T07:20:51.197Z,99122.63
2022-08-17T07:24:06.677Z,99128.69
2022-08-17T07:27:22.874Z,99147.41
2022-08-17T07:30:44.675Z,99152.50
2022-08-17T07:34:06.656Z,99177.72
2022-08-17T07:37:08.150Z,99192.03
2022-08-17T07:40:20.482Z,99185.31
2022-08-17T07:43:32.037Z,99173.91
2022-08-17T07:46:54.616Z,99167.28
2022-08-17T07:49:56.124Z,99158.63
2022-08-17T07:52:59.145Z,99147.75
2022-08-17T07:56:00.607Z,99154.03
2022-08-17T07:59:23.031Z,99171.09
2022-08-17T08:02:33.898Z,99168.84
2022-08-17T08:05:50.376Z,99148.81
2022-08-17T08:08:55.957Z,99148.44
2022-08-17T08:11:57.435Z,99147.31
2022-08-17T08:15:18.663Z,99120.03
2022-08-17T08:18:54.862Z,99136.91
2022-08-17T08:22:18.096Z,99133.41
2022-08-17T08:25:25.454Z,99099.88
2022-08-17T08:28:30.284Z,99166.97
2022-08-17T08:32:00.967Z,99200.41
2022-08-17T08:35:10.704Z,99196.66
2022-08-17T08:38:26.789Z,99191.00
2022-08-17T08:41:52.210Z,99225.34
2022-08-17T08:45:14.801Z,99247.38
2022-08-17T08:48:56.189Z,99256.44
2022-08-17T08:52:02.717Z,99288.47
2022-08-17T08:55:26.412Z,99309.38
2022-08-17T08:58:50.544Z,99301.88
2022-08-17T09:02:00.142Z,99306.41
2022-08-17T09:05:31.949Z,99306.75
2022-08-17T09:09:15.673Z,99302.22
2022-08-17T09:12:41.633Z,99306.53
2022-08-17T09:15:47.896Z,99304.09
2022-08-17T09:19:03.005Z,99311.28
2022-08-17T09:22:31.308Z,99333.94
2022-08-17T09:25:39.475Z,99343.56
2022-08-17T09:28:48.185Z,99357.69
2022-08-17T09:31:56.225Z,99373.19
2022-08-17T09:35:03.731Z,99393.84
2022-08-17T09:38:25.582Z,99418.72
2022-08-17T09:42:02.630Z,99421.22
2022-08-17T09:45:28.093Z,99429.88
2022-08-17T09:48:44.141Z,99437.81
2022-08-17T09:51:51.988Z,99436.69
2022-08-17T09:54:55.508Z,99441.41
2022-08-17T09:58:09.915Z,99434.41
2022-08-17T10:01:39.699Z,99438.25
2022-08-17T10:05:01.774Z,99418.19
2022-08-17T10:08:15.039Z,99412.53
2022-08-17T10:12:17.145Z,99438.56
2022-08-17T10:15:40.141Z,99439.03
2022-08-17T10:19:15.810Z,99436.63
2022-08-17T10:22:51.195Z,99428.38
2022-08-17T10:26:14.793Z,99426.63
2022-08-17T10:29:25.211Z,99400.16
2022-08-17T10:32:38.415Z,99398.94
2022-08-17T10:36:01.203Z,99390.13
2022-08-17T10:39:36.765Z,99386.97
2022-08-17T10:43:04.352Z,99375.34
2022-08-17T10:46:30.532Z,99355.16
2022-08-17T10:49:47.430Z,99336.25
2022-08-17T10:52:49.368Z,99331.88
2022-08-17T10:56:12.875Z,99316.75
2022-08-17T10:59:36.059Z,99298.63
2022-08-17T11:02:49.707Z,99290.41
2022-08-17T11:06:03.952Z,99277.81
2022-08-17T11:09:31.602Z,99281.53
2022-08-17T11:12:33.139Z,99284.56
2022-08-17T11:16:02.373Z,99266.84
2022-08-17T11:19:48.559Z,99284.72
2022-08-17T11:23:10.161Z,99277.22
2022-08-17T11:26:29.630Z,99281.91
2022-08-17T11:29:51.960Z,99279.34
2022-08-17T11:32:57.409Z,99280.50
2022-08-17T11:36:26.972Z,99273.28
2022-08-17T11:39:47.319Z,99272.56
2022-08-17T11:43:07.915Z,99282.59
2022-08-17T11:46:18.439Z,99269.84
2022-08-17T11:50:18.154Z,99293.91
2022-08-17T11:53:37.868Z,99274.97
2022-08-17T11:56:47.196Z,99285.69
2022-08-17T11:59:51.737Z,99288.97
2022-08-17T12:03:26.359Z,99284.16
2022-08-17T12:06:45.440Z,99277.09
2022-08-17T12:09:50.850Z,99272.44
2022-08-17T12:12:53.965Z,99258.72
2022-08-17T12:15:56.596Z,99263.94
2022-08-17T12:19:02.453Z,99255.19
2022-08-17T12:22:07.958Z,99255.59
2022-08-17T12:25:16.732Z,99254.63
2022-08-17T12:28:24.757Z,99249.00
2022-08-17T12:31:34.360Z,99258.25
2022-08-17T12:34:36.010Z,99257.41
2022-08-17T12:37:46.626Z,99255.72
2022-08-17T12:40:58.028Z,99251.09
2022-08-17T12:44:06.387Z,99250.41
2022-08-17T12:47:22.342Z,99249.97
2022-08-17T12:50:28.723Z,99244.63
2022-08-17T12:53:35.193Z,99241.78
2022-08-17T12:56:36.749Z,99252.19
2022-08-17T12:59:43.117Z,99230.47
2022-08-17T13:02:51.164Z,99230.19
2022-08-17T13:05:52.550Z,99229.47
2022-08-17T13:08:54.159Z,99220.22
2022-08-17T13:12:01.637Z,99227.13
2022-08-17T13:15:03.991Z,99217.91
2022-08-17T13:18:28.436Z,99215.09
2022-08-17T13:21:30.752Z,99209.25
2022-08-17T13:24:38.017Z,99212.38
2022-08-17T13:27:42.545Z,99206.78
2022-08-17T13:30:44.465Z,99202.72
2022-08-17T13:33:46.034Z,99197.91
2022-08-17T13:36:48.760Z,99198.50
2022-08-17T13:40:10.635Z,99196.38
2022-08-17T13:43:12.320Z,99208.75
2022-08-17T13:46:34.005Z,99192.81
2022-08-17T13:49:49.048Z,99190.88
2022-08-17T13:52:52.256Z,99189.63
2022-08-17T13:56:00.651Z,99184.09
2022-08-17T13:59:08.552Z,99178.41
2022-08-17T14:02:11.219Z,99176.84
2022-08-17T14:05:12.783Z,99173.84
2022-08-17T14:08:16.157Z,99166.72
2022-08-17T14:11:18.481Z,99160.72
2022-08-17T14:14:23.167Z,99144.50
2022-08-17T14:17:26.681Z,99152.00
2022-08-17T14:20:28.160Z,99147.16
2022-08-17T14:23:31.901Z,99155.53
2022-08-17T14:26:33.352Z,99161.72
2022-08-17T14:29:35.029Z,99165.41
2022-08-17T14:32:38.056Z,99171.63
2022-08-17T14:35:39.511Z,99179.19
2022-08-17T14:38:40.873Z,99178.00
2022-08-17T14:41:42.597Z,99165.13
2022-08-17T14:44:44.111Z,99172.72
2022-08-17T14:47:45.535Z,99169.69
2022-08-17T14:50:47.129Z,99165.19
2022-08-17T14:53:49.078Z,99166.47
2022-08-17T14:56:59.201Z,99158.47
2022-08-17T15:00:13.387Z,99160.84
2022-08-17T15:03:16.176Z,99157.50
2022-08-17T15:06:17.613Z,99160.03
2022-08-17T15:09:19.059Z,99151.72
2022-08-17T15:12:27.487Z,99146.28
2022-08-17T15:15:34.057Z,99132.78
2022-08-17T15:18:36.539Z,99117.69
2022-08-17T15:21:38.052Z,99116.13
2022-08-17T15:24:39.428Z,99137.16
2022-08-17T15:27:41.444Z,99146.72
2022-08-17T15:30:44.777Z,99143.41
2022-08-17T15:33:46.286Z,99126.38
2022-08-17T15:36:49.402Z,99138.28
2022-08-17T15:39:51.697Z,99151.16
2022-08-17T15:42:53.385Z,99151.78
2022-08-17T15:46:03.623Z,99142.09
2022-08-17T15:49:05.156Z,99144.66
2022-08-17T15:52:17.017Z,99143.94
2022-08-17T15:55:23.441Z,99146.63
2022-08-17T15:58:29.867Z,99159.88
2022-08-17T16:02:24.151Z,99146.50
2022-08-17T16:05:10.050Z,99147.63
2022-08-17T16:08:13.919Z,99145.22
2022-08-17T16:11:18.734Z,99147.63
2022-08-17T16:14:20.102Z,99141.16
2022-08-17T16:17:38.633Z,99144.59
2022-08-17T16:20:42.741Z,99136.34
2022-08-17T16:23:44.282Z,99137.41
2022-08-17T16:26:45.957Z,99133.69
2022-08-17T16:29:48.192Z,99131.56
2022-08-17T16:32:55.143Z,99139.84
2022-08-17T16:35:56.684Z,99133.16
2022-08-17T16:38:58.163Z,99138.78
2022-08-17T16:42:01.311Z,99139.06
2022-08-17T16:45:09.685Z,99133.16
2022-08-17T16:48:11.923Z,99121.34
2022-08-17T16:51:13.415Z,99124.84
2022-08-17T16:54:17.679Z,99132.91
2022-08-17T16:57:19.557Z,99131.03
2022-08-17T17:00:21.195Z,99134.50
2022-08-17T17:03:25.071Z,99136.09
2022-08-17T17:07:00.998Z,99129.94
2022-08-17T17:10:07.587Z,99119.19
2022-08-17T17:13:37.174Z,99108.19
2022-08-17T17:17:01.500Z,99104.22
2022-08-17T17:20:02.885Z,99103.69
2022-08-17T17:23:09.488Z,99095.06
2022-08-17T17:26:50.634Z,99093.22
2022-08-17T17:30:27.532Z,99091.31
2022-08-17T17:33:40.394Z,99086.47
2022-08-17T17:36:56.430Z,99078.72
2022-08-17T17:40:03.562Z,99078.47
2022-08-17T17:43:34.904Z,99078.19
2022-08-17T17:46:33.752Z,99089.16
2022-08-17T17:49:46.535Z,99082.19
2022-08-17T17:52:55.815Z,99080.31
2022-08-17T17:56:42.985Z,99084.09
2022-08-17T17:59:59.478Z,99083.28
2022-08-17T18:03:22.459Z,99088.09
2022-08-17T18:06:36.242Z,99084.31
2022-08-17T18:10:19.805Z,99102.72
2022-08-17T18:13:53.544Z,99104.59
2022-08-17T18:16:57.733Z,99108.06
2022-08-17T18:19:59.741Z,99104.03
2022-08-17T18:23:01.216Z,99122.97
2022-08-17T18:26:02.932Z,99136.34
2022-08-17T18:29:31.951Z,99141.34
2022-08-17T18:32:39.900Z,99145.66
2022-08-17T18:35:59.266Z,99157.22
2022-08-17T18:39:27.987Z,99172.34
2022-08-17T18:42:29.941Z,99185.72
2022-08-17T18:45:44.584Z,99181.19
2022-08-17T18:48:59.251Z,99193.69
2022-08-17T18:52:36.416Z,99201.91
2022-08-17T18:55:38.582Z,99204.59
2022-08-17T18:58:40.132Z,99224.72
2022-08-17T19:01:53.519Z,99221.63
2022-08-17T19:05:27.077Z,99234.09
2022-08-17T19:08:28.493Z,99245.09
2022-08-17T19:11:34.124Z,99242.19
2022-08-17T19:14:35.818Z,99238.13
2022-08-17T19:17:51.009Z,99247.00
2022-08-17T19:21:14.444Z,99245.22
2022-08-17T19:24:22.105Z,99237.88
2022-08-17T19:27:34.830Z,99256.56
2022-08-17T19:30:43.456Z,99254.75
2022-08-17T19:33:48.079Z,99265.22
2022-08-17T19:36:52.584Z,99267.88
2022-08-17T19:40:00.299Z,99258.53
2022-08-17T19:43:18.276Z,99254.38
2022-08-17T19:46:39.284Z,99256.91
2022-08-17T19:49:49.883Z,99254.53
2022-08-17T19:53:13.157Z,99261.16
2022-08-17T19:56:22.207Z,99266.03
2022-08-17T19:59:39.056Z,99271.16
2022-08-17T20:03:07.112Z,99274.63
2022-08-17T20:06:13.829Z,99276.91
2022-08-17T20:09:37.746Z,99291.06
2022-08-17T20:12:42.583Z,99297.78
2022-08-17T20:15:45.962Z,99303.75
2022-08-17T20:19:07.729Z,99307.69
2022-08-17T20:22:22.767Z,99314.66
2022-08-17T20:25:34.951Z,99326.16
2022-08-17T20:28:39.112Z,99323.66
2022-08-17T20:31:49.449Z,99326.31
2022-08-17T20:35:04.154Z,99327.75
2022-08-17T20:38:10.810Z,99332.75
2022-08-17T20:41:31.876Z,99329.41
2022-08-17T20:44:35.445Z,99351.50
2022-08-17T20:48:15.316Z,99350.94
2022-08-17T20:51:31.466Z,99371.41
2022-08-17T20:54:45.008Z,99374.50
2022-08-17T20:57:48.418Z,99375.63
2022-08-17T21:00:56.236Z,99376.00
2022-08-17T21:03:58.385Z,99368.03
2022-08-17T21:07:43.444Z,99375.31
2022-08-17T21:10:46.603Z,99367.66
2022-08-17T21:14:07.264Z,99365.41
2022-08-17T21:17:31.165Z,99352.22
2022-08-17T21:20:58.776Z,99359.00
2022-08-17T21:24:28.240Z,99354.88
2022-08-17T21:27:49.944Z,99365.09
2022-08-17T21:30:58.471Z,99365.69
2022-08-17T21:34:15.246Z,99362.34
2022-08-17T21:37:19.827Z,99363.25
2022-08-17T21:40:27.785Z,99378.69
2022-08-17T21:43:33.918Z,99396.22
2022-08-17T21:46:39.769Z,99409.22
2022-08-17T21:49:41.561Z,99409.69
2022-08-17T21:52:43.171Z,99409.00
2022-08-17T21:55:48.659Z,99417.94
2022-08-17T21:59:25.891Z,99434.16
2022-08-17T22:02:33.634Z,99438.13
2022-08-17T22:05:37.871Z,99450.34
2022-08-17T22:08:39.351Z,99479.06
2022-08-17T22:12:02.909Z,99503.81
2022-08-17T22:15:07.443Z,99511.00
2022-08-17T22:18:20.062Z,99526.13
2022-08-17T22:21:22.626Z,99533.53
2022-08-17T22:24:26.858Z,99534.47
2022-08-17T22:27:55.741Z,99538.91
2022-08-17T22:31:03.441Z,99546.13
2022-08-17T22:34:15.041Z,99539.53
2022-08-17T22:37:28.636Z,99525.28
2022-08-17T22:40:34.376Z,99516.06
2022-08-17T22:43:38.401Z,99507.06
2022-08-17T22:47:24.134Z,99524.66
2022-08-17T22:50:29.646Z,99532.69
2022-08-17T22:53:49.883Z,99525.84
2022-08-17T22:57:20.037Z,99520.28
2022-08-17T23:00:48.681Z,99523.16
2022-08-17T23:03:58.925Z,99528.53
2022-08-17T23:07:00.367Z,99525.81
2022-08-17T23:10:06.313Z,99529.13
2022-08-17T23:13:11.812Z,99530.84
2022-08-17T23:16:14.782Z,99525.28
2022-08-17T23:19:21.050Z,99532.09
2022-08-17T23:22:23.576Z,99525.31
2022-08-17T23:25:29.013Z,99531.28
2022-08-17T23:28:30.520Z,99526.84
2022-08-17T23:31:34.501Z,99510.03
2022-08-17T23:34:37.454Z,99501.06
2022-08-17T23:37:41.370Z,99498.00
2022-08-17T23:40:42.910Z,99491.38
2022-08-17T23:43:46.930Z,99474.69
2022-08-17T23:46:48.403Z,99487.03
2022-08-17T23:49:49.878Z,99474.91
2022-08-17T23:52:55.696Z,99474.53
2022-08-17T23:56:03.954Z,99471.97
2022-08-17T23:59:13.511Z,99464.97
